createdAt,value
2022-09-02T00:00:10.296Z,7.80
2022-09-02T00:02:39.497Z,8.20
2022-09-02T00:05:07.605Z,6.97
2022-09-02T00:07:35.330Z,5.28
2022-09-02T00:10:03.062Z,6.30
2022-09-02T00:12:30.759Z,5.80
2022-09-02T00:14:58.515Z,6.25
2022-09-02T00:17:26.487Z,4.80
2022-09-02T00:19:56.290Z,6.70
2022-09-02T00:22:24.113Z,5.28
2022-09-02T00:24:51.983Z,7.32
2022-09-02T00:27:19.706Z,5.85
2022-09-02T00:29:47.558Z,7.30
2022-09-02T00:32:15.353Z,7.30
2022-09-02T00:34:43.027Z,5.10
2022-09-02T00:37:11.667Z,7.25
2022-09-02T00:39:39.873Z,6.40
2022-09-02T00:42:07.793Z,6.90
2022-09-02T00:44:35.641Z,5.65
2022-09-02T00:47:03.749Z,5.13
2022-09-02T00:49:35.209Z,5.00
2022-09-02T00:52:08.753Z,5.95
2022-09-02T00:54:41.419Z,6.25
2022-09-02T00:57:13.574Z,6.70
2022-09-02T01:00:02.528Z,5.53
2022-09-02T01:02:31.875Z,5.68
2022-09-02T01:05:00.972Z,7.43
2022-09-02T01:07:34.035Z,7.00
2022-09-02T01:10:03.168Z,6.03
2022-09-02T01:12:32.493Z,7.35
2022-09-02T01:15:01.004Z,8.68
2022-09-02T01:17:29.112Z,7.50
2022-09-02T01:20:05.219Z,5.65
2022-09-02T01:22:34.217Z,7.50
2022-09-02T01:25:09.858Z,6.03
2022-09-02T01:27:38.542Z,7.18
2022-09-02T01:30:08.771Z,6.63
2022-09-02T01:32:36.677Z,6.43
2022-09-02T01:35:05.702Z,7.30
2022-09-02T01:37:34.046Z,6.25
2022-09-02T01:40:02.451Z,5.88
2022-09-02T01:42:30.933Z,7.72
2022-09-02T01:44:58.771Z,6.82
2022-09-02T01:47:27.799Z,6.18
2022-09-02T01:49:56.170Z,6.68
2022-09-02T01:52:25.600Z,6.30
2022-09-02T01:54:53.583Z,5.97
2022-09-02T01:57:24.667Z,5.38
2022-09-02T01:59:53.920Z,5.95
2022-09-02T02:02:24.563Z,4.80
2022-09-02T02:04:53.900Z,7.32
2022-09-02T02:07:22.997Z,6.78
2022-09-02T02:09:52.104Z,5.65
2022-09-02T02:12:20.334Z,5.75
2022-09-02T02:14:48.888Z,8.32
2022-09-02T02:17:17.094Z,4.15
2022-09-02T02:19:44.936Z,6.15
2022-09-02T02:22:14.262Z,8.43
2022-09-02T02:24:41.965Z,5.90
2022-09-02T02:27:09.646Z,5.18
2022-09-02T02:29:37.418Z,3.72
2022-09-02T02:32:08.047Z,3.50
2022-09-02T02:34:36.177Z,4.78
2022-09-02T02:37:06.469Z,3.15
2022-09-02T02:39:34.168Z,4.05
2022-09-02T02:42:02.887Z,4.28
2022-09-02T02:44:31.603Z,5.15
2022-09-02T02:47:00.909Z,6.38
2022-09-02T02:49:28.689Z,5.15
2022-09-02T02:51:56.297Z,6.00
2022-09-02T02:54:24.268Z,6.05
2022-09-02T02:57:04.497Z,6.45
2022-09-02T02:59:32.865Z,5.90
2022-09-02T03:02:00.999Z,9.50
2022-09-02T03:04:28.771Z,6.35
2022-09-02T03:06:56.468Z,4.50
2022-09-02T03:09:24.512Z,5.55
2022-09-02T03:11:53.070Z,5.45
2022-09-02T03:14:20.863Z,6.80
2022-09-02T03:16:48.586Z,5.00
2022-09-02T03:19:18.862Z,4.38
2022-09-02T03:21:46.969Z,4.60
2022-09-02T03:24:15.028Z,4.13
2022-09-02T03:26:43.723Z,5.57
2022-09-02T03:29:12.454Z,6.15
2022-09-02T03:31:40.851Z,4.80
2022-09-02T03:34:08.790Z,6.95
2022-09-02T03:36:40.794Z,5.28
2022-09-02T03:39:12.071Z,4.50
2022-09-02T03:41:42.368Z,7.50
2022-09-02T03:44:11.891Z,5.10
2022-09-02T03:46:40.810Z,4.60
2022-09-02T03:49:08.811Z,6.43
2022-09-02T03:51:41.194Z,5.07
2022-09-02T03:54:10.391Z,4.75
2022-09-02T03:56:39.244Z,5.07
2022-09-02T03:59:08.381Z,4.82
2022-09-02T04:01:36.710Z,6.90
2022-09-02T04:04:06.547Z,5.13
2022-09-02T04:06:36.395Z,4.97
2022-09-02T04:09:05.204Z,6.85
2022-09-02T04:11:35.488Z,5.00
2022-09-02T04:14:03.310Z,4.85
2022-09-02T04:16:34.030Z,7.75
2022-09-02T04:19:07.516Z,4.43
2022-09-02T04:21:38.007Z,7.97
2022-09-02T04:24:09.416Z,4.93
2022-09-02T04:26:44.819Z,6.93
2022-09-02T04:29:14.118Z,5.22
2022-09-02T04:31:49.259Z,5.05
2022-09-02T04:34:26.930Z,5.80
2022-09-02T04:36:59.097Z,7.03
2022-09-02T04:39:26.718Z,5.47
2022-09-02T04:41:58.542Z,7.78
2022-09-02T04:44:27.342Z,5.90
2022-09-02T04:46:55.072Z,4.90
2022-09-02T04:49:23.991Z,8.52
2022-09-02T04:51:54.725Z,8.95
2022-09-02T04:54:24.956Z,4.53
2022-09-02T04:56:54.057Z,4.60
2022-09-02T04:59:24.228Z,7.18
2022-09-02T05:02:08.784Z,7.82
2022-09-02T05:04:37.081Z,8.75
2022-09-02T05:07:08.696Z,5.68
2022-09-02T05:10:41.374Z,7.53
2022-09-02T05:13:33.482Z,5.25
2022-09-02T05:16:01.687Z,7.80
2022-09-02T05:18:31.430Z,11.38
2022-09-02T05:20:59.604Z,11.48
2022-09-02T05:23:27.986Z,6.55
2022-09-02T05:25:56.625Z,7.82
2022-09-02T05:28:25.220Z,7.32
2022-09-02T05:30:53.210Z,5.05
2022-09-02T05:33:23.137Z,9.80
2022-09-02T05:35:53.461Z,7.90
2022-09-02T05:38:21.813Z,7.88
2022-09-02T05:40:50.089Z,7.80
2022-09-02T05:43:19.399Z,6.28
2022-09-02T05:45:49.331Z,4.32
2022-09-02T05:48:36.528Z,7.65
2022-09-02T05:51:05.992Z,8.03
2022-09-02T05:53:35.413Z,9.45
2022-09-02T05:56:06.876Z,7.93
2022-09-02T05:58:35.779Z,4.97
2022-09-02T06:01:11.286Z,7.13
2022-09-02T06:03:39.610Z,12.43
2022-09-02T06:06:08.895Z,10.25
2022-09-02T06:08:41.525Z,8.20
2022-09-02T06:11:12.188Z,7.75
2022-09-02T06:13:43.019Z,6.50
2022-09-02T06:16:18.199Z,8.35
2022-09-02T06:18:50.040Z,9.43
2022-09-02T06:21:20.965Z,11.02
2022-09-02T06:23:52.413Z,9.02
2022-09-02T06:26:20.895Z,8.90
2022-09-02T06:28:49.300Z,11.07
2022-09-02T06:31:20.703Z,9.38
2022-09-02T06:33:53.414Z,8.55
2022-09-02T06:36:28.297Z,8.98
2022-09-02T06:39:00.090Z,12.10
2022-09-02T06:41:34.521Z,8.85
2022-09-02T06:44:07.788Z,6.78
2022-09-02T06:46:44.525Z,7.97
2022-09-02T06:49:17.536Z,12.65
2022-09-02T06:51:52.439Z,10.30
2022-09-02T06:54:23.057Z,11.70
2022-09-02T06:56:58.714Z,11.77
2022-09-02T06:59:28.970Z,12.70
2022-09-02T07:02:00.438Z,8.68
2022-09-02T07:04:51.239Z,9.32
2022-09-02T07:07:25.560Z,10.20
2022-09-02T07:10:13.182Z,9.80
2022-09-02T07:12:44.554Z,9.30
2022-09-02T07:15:18.707Z,9.98
2022-09-02T07:17:51.426Z,12.23
2022-09-02T07:20:28.796Z,8.30
2022-09-02T07:23:03.472Z,11.38
2022-09-02T07:25:37.240Z,11.75
2022-09-02T07:28:15.845Z,11.43
2022-09-02T07:30:45.160Z,11.70
2022-09-02T07:33:16.857Z,10.35
2022-09-02T07:35:46.703Z,9.35
2022-09-02T07:38:18.433Z,9.60
2022-09-02T07:40:47.428Z,11.35
2022-09-02T07:43:16.634Z,16.50
2022-09-02T07:45:45.200Z,21.85
2022-09-02T07:48:15.251Z,15.60
2022-09-02T07:50:44.251Z,22.88
2022-09-02T07:53:16.725Z,23.65
2022-09-02T07:55:47.312Z,18.92
2022-09-02T07:58:17.601Z,21.27
2022-09-02T08:00:45.719Z,24.90
2022-09-02T08:03:15.691Z,19.27
2022-09-02T08:05:49.181Z,18.75
2022-09-02T08:08:20.501Z,11.18
2022-09-02T08:10:50.803Z,12.85
2022-09-02T08:13:19.301Z,9.70
2022-09-02T08:15:50.861Z,11.82
2022-09-02T08:18:22.650Z,8.88
2022-09-02T08:20:51.223Z,17.77
2022-09-02T08:23:33.608Z,12.40
2022-09-02T08:26:05.807Z,12.55
2022-09-02T08:28:33.853Z,16.38
2022-09-02T08:31:05.240Z,20.90
2022-09-02T08:33:33.150Z,24.90
2022-09-02T08:36:11.244Z,23.17
2022-09-02T08:38:38.990Z,21.58
2022-09-02T08:41:37.562Z,16.13
2022-09-02T08:44:07.321Z,30.67
2022-09-02T08:46:36.143Z,33.95
2022-09-02T08:49:08.837Z,35.55
2022-09-02T08:51:56.297Z,32.13
2022-09-02T08:54:36.741Z,26.95
2022-09-02T08:57:05.477Z,27.67
2022-09-02T08:59:33.412Z,35.17
2022-09-02T09:02:22.687Z,32.95
2022-09-02T09:05:19.400Z,27.08
2022-09-02T09:07:57.726Z,24.88
2022-09-02T09:10:53.282Z,21.40
2022-09-02T09:13:48.740Z,24.13
2022-09-02T09:16:34.343Z,24.33
2022-09-02T09:19:44.367Z,21.25
2022-09-02T09:22:16.655Z,28.45
2022-09-02T09:24:46.714Z,26.38
2022-09-02T09:27:24.048Z,27.08
2022-09-02T09:29:52.676Z,20.05
2022-09-02T09:32:26.647Z,15.68
2022-09-02T09:34:57.530Z,23.25
2022-09-02T09:37:45.813Z,13.02
2022-09-02T09:40:24.817Z,19.63
2022-09-02T09:43:14.598Z,14.85
2022-09-02T09:45:45.878Z,22.75
2022-09-02T09:48:29.199Z,19.48
2022-09-02T09:50:58.067Z,19.23
2022-09-02T09:53:30.103Z,18.10
2022-09-02T09:56:26.740Z,16.35
2022-09-02T09:58:54.696Z,15.05
2022-09-02T10:01:31.263Z,15.40
2022-09-02T10:06:30.088Z,12.30
2022-09-02T10:09:14.257Z,14.23
2022-09-02T10:11:54.502Z,13.85
2022-09-02T10:14:23.743Z,15.07
2022-09-02T10:17:10.559Z,12.95
2022-09-02T10:19:52.295Z,18.40
2022-09-02T10:22:58.429Z,12.10
2022-09-02T10:26:07.903Z,12.52
2022-09-02T10:28:54.355Z,12.48
2022-09-02T10:31:41.510Z,15.70
2022-09-02T10:37:00.876Z,12.77
2022-09-02T10:39:56.417Z,13.23
2022-09-02T10:42:39.674Z,13.55
2022-09-02T10:45:18.046Z,10.25
2022-09-02T10:48:03.808Z,7.95
2022-09-02T10:50:42.645Z,18.58
2022-09-02T10:53:15.263Z,23.02
2022-09-02T10:55:59.470Z,18.92
2022-09-02T10:58:45.342Z,38.95
2022-09-02T11:01:20.810Z,36.78
2022-09-02T11:03:58.489Z,25.27
2022-09-02T11:06:40.206Z,19.50
2022-09-02T11:09:33.310Z,12.77
2022-09-02T11:12:11.856Z,12.13
2022-09-02T11:14:51.672Z,13.20
2022-09-02T11:17:28.784Z,12.80
2022-09-02T11:20:04.013Z,17.98
2022-09-02T11:22:45.338Z,17.50
2022-09-02T11:25:18.318Z,12.40
2022-09-02T11:27:59.983Z,15.95
2022-09-02T11:30:37.877Z,15.43
2022-09-02T11:33:39.838Z,11.80
2022-09-02T11:36:08.052Z,13.35
2022-09-02T11:38:41.819Z,9.98
2022-09-02T11:41:35.808Z,14.05
2022-09-02T11:44:41.105Z,23.70
2022-09-02T11:47:27.385Z,29.73
2022-09-02T11:50:39.526Z,30.75
2022-09-02T11:53:31.205Z,26.15
2022-09-02T11:56:04.384Z,15.43
2022-09-02T11:58:33.921Z,20.33
2022-09-02T12:01:28.247Z,12.48
2022-09-02T12:04:48.571Z,12.50
2022-09-02T12:07:09.447Z,9.93
2022-09-02T12:12:37.658Z,15.35
2022-09-02T12:15:05.977Z,14.52
2022-09-02T12:17:40.156Z,13.80
2022-09-02T12:20:38.573Z,11.57
2022-09-02T12:23:08.349Z,11.27
2022-09-02T12:25:49.178Z,15.60
2022-09-02T12:28:30.673Z,11.18
2022-09-02T12:31:18.018Z,11.45
2022-09-02T12:33:51.887Z,20.70
2022-09-02T12:36:39.288Z,57.85
2022-09-02T12:39:27.554Z,155.75
2022-09-02T12:42:12.987Z,147.23
2022-09-02T12:45:02.209Z,62.05
2022-09-02T12:48:02.689Z,54.97
2022-09-02T12:50:49.623Z,22.50
2022-09-02T12:53:40.371Z,15.70
2022-09-02T12:56:23.350Z,13.10
2022-09-02T12:58:55.308Z,17.00
2022-09-02T13:01:59.356Z,17.70
2022-09-02T13:05:28.747Z,24.95
2022-09-02T13:08:05.468Z,13.85
2022-09-02T13:10:33.165Z,16.40
2022-09-02T13:13:32.816Z,15.05
2022-09-02T13:16:19.427Z,13.55
2022-09-02T13:19:02.515Z,13.73
2022-09-02T13:21:36.220Z,16.52
2022-09-02T13:24:14.513Z,17.92
2022-09-02T13:27:01.141Z,13.52
2022-09-02T13:29:38.072Z,14.52
2022-09-02T13:32:23.641Z,16.27
2022-09-02T13:34:55.703Z,12.93
2022-09-02T13:37:32.786Z,11.43
2022-09-02T13:40:05.578Z,10.40
2022-09-02T13:42:33.392Z,13.40
2022-09-02T13:45:16.204Z,9.70
2022-09-02T13:47:46.994Z,9.68
2022-09-02T13:50:21.796Z,13.18
2022-09-02T13:55:54.025Z,13.57
2022-09-02T13:58:31.171Z,12.32
2022-09-02T14:01:17.910Z,15.90
2022-09-02T14:03:51.987Z,16.90
2022-09-02T14:06:27.941Z,10.63
2022-09-02T14:09:06.766Z,16.30
2022-09-02T14:11:45.775Z,13.02
2022-09-02T14:14:20.214Z,10.82
2022-09-02T14:16:48.212Z,14.23
2022-09-02T14:19:18.722Z,20.08
2022-09-02T14:21:52.192Z,11.35
2022-09-02T14:24:37.225Z,12.65
2022-09-02T14:27:17.859Z,13.07
2022-09-02T14:29:47.507Z,13.57
2022-09-02T14:32:21.927Z,17.35
2022-09-02T14:35:08.663Z,10.63
2022-09-02T14:37:55.835Z,18.80
2022-09-02T14:40:43.548Z,9.70
2022-09-02T14:43:16.400Z,13.98
2022-09-02T14:45:49.073Z,14.88
2022-09-02T14:48:24.066Z,14.20
2022-09-02T14:51:05.675Z,19.35
2022-09-02T14:53:37.578Z,11.93
2022-09-02T14:56:06.222Z,10.52
2022-09-02T14:58:34.427Z,12.57
2022-09-02T15:01:02.542Z,12.65
2022-09-02T15:03:32.804Z,10.70
2022-09-02T15:06:00.730Z,12.13
2022-09-02T15:08:28.513Z,15.05
2022-09-02T15:11:00.024Z,14.98
2022-09-02T15:13:32.717Z,12.25
2022-09-02T15:16:01.171Z,14.20
2022-09-02T15:18:28.999Z,16.60
2022-09-02T15:20:57.667Z,11.98
2022-09-02T15:23:28.647Z,11.68
2022-09-02T15:25:57.835Z,12.40
2022-09-02T15:28:25.534Z,13.68
2022-09-02T15:31:00.875Z,17.23
2022-09-02T15:33:29.302Z,15.73
2022-09-02T15:36:12.967Z,16.88
2022-09-02T15:38:41.469Z,16.05
2022-09-02T15:41:20.399Z,19.15
2022-09-02T15:43:48.929Z,20.30
2022-09-02T15:46:29.731Z,17.98
2022-09-02T15:49:02.830Z,22.13
2022-09-02T15:51:31.787Z,15.60
2022-09-02T15:54:02.141Z,16.83
2022-09-02T15:56:33.336Z,19.42
2022-09-02T15:59:22.342Z,16.60
2022-09-02T16:01:52.368Z,19.92
2022-09-02T16:04:20.158Z,17.60
2022-09-02T16:06:49.845Z,16.40
2022-09-02T16:09:18.330Z,18.52
2022-09-02T16:11:52.024Z,20.08
2022-09-02T16:14:21.466Z,16.77
2022-09-02T16:16:51.085Z,17.88
2022-09-02T16:19:21.685Z,17.55
2022-09-02T16:21:53.435Z,21.63
2022-09-02T16:24:22.931Z,14.27
2022-09-02T16:26:51.667Z,16.63
2022-09-02T16:29:19.933Z,17.38
2022-09-02T16:32:02.349Z,16.33
2022-09-02T16:34:37.347Z,19.88
2022-09-02T16:37:05.914Z,16.88
2022-09-02T16:39:34.013Z,20.83
2022-09-02T16:42:04.735Z,19.55
2022-09-02T16:44:34.315Z,17.80
2022-09-02T16:47:02.022Z,14.55
2022-09-02T16:49:29.877Z,11.77
2022-09-02T16:51:59.759Z,17.60
2022-09-02T16:54:32.957Z,18.60
2022-09-02T16:57:02.109Z,15.20
2022-09-02T16:59:31.925Z,16.08
2022-09-02T17:01:59.940Z,16.30
2022-09-02T17:04:27.840Z,14.55
2022-09-02T17:06:57.313Z,17.70
2022-09-02T17:09:25.585Z,21.40
2022-09-02T17:11:54.146Z,13.95
2022-09-02T17:14:22.308Z,16.95
2022-09-02T17:16:51.737Z,14.48
2022-09-02T17:19:21.827Z,12.35
2022-09-02T17:21:52.579Z,14.07
2022-09-02T17:24:28.298Z,12.32
2022-09-02T17:26:56.669Z,14.63
2022-09-02T17:29:49.602Z,10.05
2022-09-02T17:32:18.843Z,14.98
2022-09-02T17:34:48.974Z,13.45
2022-09-02T17:37:17.313Z,12.52
2022-09-02T17:39:46.145Z,9.02
2022-09-02T17:42:15.328Z,8.82
2022-09-02T17:44:43.262Z,8.85
2022-09-02T17:47:17.374Z,9.95
2022-09-02T17:49:45.138Z,5.43
2022-09-02T17:52:15.367Z,6.20
2022-09-02T17:54:43.571Z,8.35
2022-09-02T17:57:33.425Z,6.00
2022-09-02T18:00:11.887Z,6.75
2022-09-02T18:03:01.294Z,7.75
2022-09-02T18:06:04.016Z,7.07
2022-09-02T18:09:04.130Z,6.47
2022-09-02T18:11:32.002Z,7.75
2022-09-02T18:14:40.923Z,7.13
2022-09-02T18:17:23.699Z,9.77
2022-09-02T18:19:54.446Z,6.78
2022-09-02T18:22:25.346Z,9.65
2022-09-02T18:25:21.524Z,8.60
2022-09-02T18:28:02.890Z,8.07
2022-09-02T18:31:10.482Z,6.10
2022-09-02T18:33:38.065Z,7.50
2022-09-02T18:36:18.173Z,8.10
2022-09-02T18:38:52.009Z,5.88
2022-09-02T18:41:23.189Z,8.10
2022-09-02T18:44:24.961Z,6.95
2022-09-02T18:47:05.474Z,6.28
2022-09-02T18:49:37.380Z,7.30
2022-09-02T18:52:10.882Z,11.10
2022-09-02T18:55:00.290Z,8.13
2022-09-02T18:57:33.654Z,8.77
2022-09-02T19:00:10.287Z,9.70
2022-09-02T19:05:26.738Z,6.18
2022-09-02T19:11:19.534Z,6.30
2022-09-02T19:13:51.376Z,5.70
2022-09-02T19:16:24.474Z,7.32
2022-09-02T19:18:53.131Z,8.95
2022-09-02T19:21:37.011Z,7.95
2022-09-02T19:24:11.814Z,5.20
2022-09-02T19:26:46.130Z,4.72
2022-09-02T19:29:19.040Z,6.13
2022-09-02T19:31:54.842Z,6.22
2022-09-02T19:34:24.278Z,4.82
2022-09-02T19:36:55.960Z,3.90
2022-09-02T19:39:23.850Z,6.53
2022-09-02T19:41:54.254Z,4.32
2022-09-02T19:44:22.103Z,4.32
2022-09-02T19:48:02.830Z,5.03
2022-09-02T19:49:38.285Z,6.32
2022-09-02T19:52:05.971Z,5.07
2022-09-02T19:54:33.897Z,4.95
2022-09-02T19:57:02.910Z,4.38
2022-09-02T19:59:34.229Z,5.18
2022-09-02T20:02:04.781Z,7.25
2022-09-02T20:04:33.422Z,3.45
2022-09-02T20:07:02.163Z,3.75
2022-09-02T20:09:30.255Z,4.57
2022-09-02T20:11:57.932Z,4.47
2022-09-02T20:14:26.518Z,6.50
2022-09-02T20:17:02.483Z,4.97
2022-09-02T20:19:31.601Z,4.55
2022-09-02T20:22:00.075Z,5.03
2022-09-02T20:24:33.968Z,5.50
2022-09-02T20:27:25.547Z,4.75
2022-09-02T20:30:09.288Z,6.70
2022-09-02T20:32:56.903Z,4.28
2022-09-02T20:35:40.273Z,7.00
2022-09-02T20:38:40.705Z,5.43
2022-09-02T20:41:13.442Z,4.00
2022-09-02T20:44:11.542Z,5.63
2022-09-02T20:47:27.195Z,6.22
2022-09-02T20:50:21.802Z,4.70
2022-09-02T20:53:22.165Z,4.88
2022-09-02T20:56:11.010Z,6.47
2022-09-02T21:01:57.138Z,6.05
2022-09-02T21:04:44.375Z,5.13
2022-09-02T21:07:41.870Z,7.15
2022-09-02T21:10:22.346Z,6.32
2022-09-02T21:13:22.391Z,5.63
2022-09-02T21:16:10.243Z,6.22
2022-09-02T21:19:02.231Z,5.05
2022-09-02T21:22:07.355Z,7.47
2022-09-02T21:25:13.714Z,5.00
2022-09-02T21:27:58.082Z,5.50
2022-09-02T21:30:37.201Z,5.18
2022-09-02T21:33:13.793Z,4.95
2022-09-02T21:35:54.080Z,5.03
2022-09-02T21:38:47.673Z,5.80
2022-09-02T21:41:40.829Z,7.28
2022-09-02T21:44:35.462Z,9.77
2022-09-02T21:47:41.191Z,5.82
2022-09-02T21:50:22.074Z,8.43
2022-09-02T21:53:12.585Z,6.38
2022-09-02T21:56:06.853Z,5.60
2022-09-02T21:58:53.380Z,7.25
2022-09-02T22:01:47.430Z,5.00
2022-09-02T22:04:38.616Z,6.68
2022-09-02T22:07:38.379Z,5.65
2022-09-02T22:10:21.909Z,5.50
2022-09-02T22:12:52.506Z,4.93
2022-09-02T22:15:26.683Z,5.55
2022-09-02T22:18:22.970Z,5.20
2022-09-02T22:21:04.313Z,6.68
2022-09-02T22:23:48.836Z,5.25
2022-09-02T22:26:35.665Z,5.70
2022-09-02T22:29:18.667Z,8.07
2022-09-02T22:31:54.759Z,4.22
2022-09-02T22:34:24.495Z,11.13
2022-09-02T22:37:00.492Z,7.72
2022-09-02T22:39:52.814Z,6.57
2022-09-02T22:42:37.762Z,6.28
2022-09-02T22:45:39.917Z,7.25
2022-09-02T22:48:40.757Z,5.80
2022-09-02T22:51:39.346Z,6.75
2022-09-02T22:54:07.172Z,6.60
2022-09-02T22:57:10.375Z,7.72
2022-09-02T23:00:02.679Z,4.78
2022-09-02T23:03:05.503Z,4.40
2022-09-02T23:05:55.050Z,5.50
2022-09-02T23:08:24.769Z,5.05
2022-09-02T23:11:07.004Z,5.30
2022-09-02T23:13:56.408Z,6.60
2022-09-02T23:16:35.341Z,4.05
2022-09-02T23:19:41.416Z,6.65
2022-09-02T23:22:44.712Z,4.38
2022-09-02T23:25:14.070Z,7.97
2022-09-02T23:27:51.922Z,3.63
2022-09-02T23:30:19.841Z,5.88
2022-09-02T23:33:10.236Z,4.88
2022-09-02T23:36:03.166Z,4.80
2022-09-02T23:38:43.352Z,4.05
2022-09-02T23:41:12.895Z,4.63
2022-09-02T23:43:44.269Z,3.83
2022-09-02T23:46:56.989Z,4.03
2022-09-02T23:49:47.307Z,4.57
2022-09-02T23:52:36.854Z,3.97
2022-09-02T23:55:24.299Z,4.00
2022-09-02T23:58:19.467Z,4.78
